Time;durP1;ratioP1;P1;durP2;ratioP2;P2;SDS_P1;SDS_P2;PMS_P1;PMS_P2;Temp;Humidity;BMP_temperature;BMP_pressure;BME280_temperature;BME280_humidity;BME280_pressure;Samples;Min_cycle;Max_cycle;Signal;HPM_P1;HPM_P2
2021/12/05 00:19:36;;;;;;;79.45;36.45;;;;;;;-2.63;81.31;99149.64;1859793;77;25614;-70
2021/12/05 00:21:58;;;;;;;90.22;38.42;;;;;;;-2.64;81.27;99145.91;1854495;77;25435;-69
2021/12/05 00:24:24;;;;;;;132.55;53.85;;;;;;;-2.66;81.19;99139.54;1858271;77;27321;-69
2021/12/05 00:26:59;;;;;;;143.07;58.35;;;;;;;-2.66;81.36;99140.86;1859812;77;25589;-70
2021/12/05 00:29:37;;;;;;;93.35;44.40;;;;;;;-2.67;81.41;99140.61;1859291;77;25580;-69
2021/12/05 00:34:54;;;;;;;82.42;39.00;;;;;;;-2.70;81.29;99149.04;1758276;81;25421;-69
2021/12/05 00:48:34;;;;;;;71.28;35.28;;;;;;;-2.71;81.44;99150.61;1679586;85;25575;-69
2021/12/05 00:51:06;;;;;;;82.57;42.98;;;;;;;-2.74;81.41;99146.63;1653117;85;27532;-68
2021/12/05 01:07:10;;;;;;;66.45;32.15;;;;;;;-2.80;81.08;99163.49;1624740;88;25705;-69
2021/12/05 01:17:07;;;;;;;70.57;34.70;;;;;;;-2.92;80.96;99165.48;1679469;85;27325;-69
2021/12/05 01:19:34;;;;;;;67.90;35.20;;;;;;;-2.95;81.20;99169.94;1679411;85;25519;-69
2021/12/05 01:22:11;;;;;;;73.90;39.73;;;;;;;-2.96;81.28;99169.15;1679504;85;25499;-69
2021/12/05 01:24:55;;;;;;;80.30;42.58;;;;;;;-2.97;81.26;99175.48;1679416;85;25621;-69
2021/12/05 01:30:07;;;;;;;69.77;37.93;;;;;;;-2.99;81.26;99177.58;1663652;86;27318;-69
2021/12/05 01:32:46;;;;;;;60.75;30.35;;;;;;;-3.00;81.30;99179.94;1660987;86;25531;-69
2021/12/05 01:35:15;;;;;;;62.40;31.25;;;;;;;-3.02;81.31;99176.21;1675955;84;25446;-69
2021/12/05 01:46:08;;;;;;;65.40;30.48;;;;;;;-3.09;81.29;99170.84;1641869;87;25584;-69
2021/12/05 01:53:41;;;;;;;54.67;29.23;;;;;;;-3.19;81.24;99169.66;1642060;87;25661;-69
2021/12/05 02:01:42;;;;;;;63.73;30.43;;;;;;;-3.24;81.44;99183.34;1667048;86;25440;-69
2021/12/05 02:09:54;;;;;;;57.58;27.60;;;;;;;-3.30;81.62;99175.05;1672181;85;27346;-69
2021/12/05 02:15:09;;;;;;;59.25;27.75;;;;;;;-3.32;81.73;99175.83;1678445;85;25712;-69
2021/12/05 02:39:55;;;;;;;57.40;28.57;;;;;;;-3.49;82.19;99166.11;1761878;81;25511;-69
2021/12/05 02:42:27;;;;;;;;;;;;;;;-3.49;82.31;99175.87;1763004;81;25696;-69
2021/12/05 02:44:46;;;;;;;;;;;;;;;-3.51;82.21;99182.72;1763134;81;25531;-69
2021/12/05 02:47:18;;;;;;;;;;;;;;;-3.53;82.29;99183.48;1764601;81;25739;-69
2021/12/05 02:49:48;;;;;;;;;;;;;;;-3.53;82.33;99182.17;1764653;81;27913;-70
2021/12/05 02:52:27;;;;;;;;;;;;;;;-3.54;82.28;99179.77;1764588;81;25744;-69
2021/12/05 02:54:52;;;;;;;;;;;;;;;-3.57;82.26;99189.79;1785694;79;25523;-69
2021/12/05 02:57:31;;;;;;;;;;;;;;;-3.60;82.04;99184.98;1834430;78;26292;-69
2021/12/05 02:59:53;;;;;;;;;;;;;;;-3.62;82.13;99177.81;1832539;77;25443;-69
2021/12/05 03:02:18;;;;;;;;;;;;;;;-3.65;82.26;99180.94;1833749;78;27383;-69
2021/12/05 03:04:47;;;;;;;;;;;;;;;-3.64;82.20;99183.08;1834571;78;25533;-69
2021/12/05 03:07:18;;;;;;;;;;;;;;;-3.66;82.25;99179.36;1834579;78;25620;-69
2021/12/05 03:09:45;;;;;;;;;;;;;;;-3.66;82.31;99174.57;1834553;78;25794;-69
2021/12/05 03:12:17;;;;;;;;;;;;;;;-3.67;82.32;99177.75;1834548;78;25353;-68
2021/12/05 03:14:41;;;;;;;;;;;;;;;-3.67;82.27;99176.95;1835728;77;29413;-69
2021/12/05 03:17:07;;;;;;;;;;;;;;;-3.67;82.31;99182.24;1834447;78;25588;-69
2021/12/05 03:19:34;;;;;;;;;;;;;;;-3.68;82.50;99172.70;1834617;78;25716;-69
2021/12/05 03:22:00;;;;;;;;;;;;;;;-3.69;82.55;99176.41;1834207;78;25620;-69
2021/12/05 03:24:29;;;;;;;;;;;;;;;-3.68;82.65;99174.02;1834588;78;25628;-69
2021/12/05 03:26:55;;;;;;;;;;;;;;;-3.67;82.58;99166.38;1834550;78;28008;-69
2021/12/05 03:29:23;;;;;;;;;;;;;;;-3.67;82.63;99165.06;1834464;78;25510;-69
2021/12/05 03:31:51;;;;;;;;;;;;;;;-3.67;82.72;99158.45;1834548;78;25590;-69
2021/12/05 03:34:19;;;;;;;;;;;;;;;-3.66;82.91;99154.75;1834471;78;25680;-69
2021/12/05 03:36:49;;;;;;;;;;;;;;;-3.67;83.06;99157.13;1834576;78;25622;-69
2021/12/05 03:39:16;;;;;;;;;;;;;;;-3.66;83.06;99145.00;1834603;78;27322;-69
2021/12/05 03:41:43;;;;;;;;;;;;;;;-3.65;83.16;99141.83;1834601;78;25377;-69
2021/12/05 03:44:12;;;;;;;;;;;;;;;-3.66;83.20;99138.39;1834815;78;25588;-69
2021/12/05 03:46:39;;;;;;;;;;;;;;;-3.64;83.21;99139.47;1834598;78;26484;-69
2021/12/05 03:49:08;;;;;;;;;;;;;;;-3.62;83.28;99138.70;1834723;78;25358;-70
2021/12/05 03:51:38;;;;;;;;;;;;;;;-3.62;83.27;99136.06;1834668;78;27354;-69
2021/12/05 03:54:06;;;;;;;;;;;;;;;-3.62;83.27;99139.48;1834601;78;25361;-69
2021/12/05 03:56:34;;;;;;;;;;;;;;;-3.60;83.30;99148.50;1834732;78;25550;-69
2021/12/05 03:59:02;;;;;;;;;;;;;;;-3.60;83.28;99160.40;1829008;78;25616;-69
2021/12/05 04:01:29;;;;;;;;;;;;;;;-3.61;83.42;99151.67;1825425;78;25483;-69
2021/12/05 04:03:57;;;;;;;;;;;;;;;-3.58;83.28;99155.66;1825397;78;29436;-69
2021/12/05 04:06:26;;;;;;;;;;;;;;;-3.58;83.20;99153.81;1825356;78;25629;-69
2021/12/05 04:08:53;;;;;;;;;;;;;;;-3.59;83.20;99146.15;1825591;78;25310;-69
2021/12/05 04:11:26;;;;;;;;;;;;;;;-3.59;83.32;99145.62;1826137;78;25672;-69
2021/12/05 04:13:51;;;;;;;;;;;;;;;-3.56;83.30;99157.53;1826228;78;25388;-69
2021/12/05 04:16:17;;;;;;;;;;;;;;;-3.57;83.23;99150.13;1826590;78;27406;-69
2021/12/05 04:18:45;;;;;;;;;;;;;;;-3.55;83.15;99153.86;1825437;78;25430;-69
2021/12/05 04:21:13;;;;;;;;;;;;;;;-3.55;83.24;99144.61;1825426;78;25364;-69
2021/12/05 04:23:40;;;;;;;;;;;;;;;-3.55;83.10;99142.49;1825410;78;26333;-69
2021/12/05 04:26:06;;;;;;;;;;;;;;;-3.58;83.01;99141.13;1825421;78;25570;-69
2021/12/05 04:28:33;;;;;;;;;;;;;;;-3.60;83.19;99144.00;1825361;78;27313;-69
2021/12/05 04:31:00;;;;;;;;;;;;;;;-3.60;83.24;99153.79;1825301;78;25645;-69
2021/12/05 04:33:26;;;;;;;;;;;;;;;-3.61;83.29;99153.00;1825363;78;25449;-69
2021/12/05 04:35:53;;;;;;;;;;;;;;;-3.59;83.45;99146.94;1825372;78;25618;-68
2021/12/05 04:38:19;;;;;;;;;;;;;;;-3.59;83.39;99144.83;1825349;78;25613;-70
2021/12/05 04:40:48;;;;;;;;;;;;;;;-3.60;83.35;99151.14;1825439;78;27412;-69
2021/12/05 04:43:15;;;;;;;;;;;;;;;-3.60;83.33;99163.83;1825253;78;25518;-69
2021/12/05 04:45:42;;;;;;;;;;;;;;;-3.61;83.29;99172.83;1825373;78;25544;-69
2021/12/05 04:48:09;;;;;;;;;;;;;;;-3.60;83.30;99189.47;1825356;78;25615;-69
2021/12/05 04:50:37;;;;;;;;;;;;;;;-3.63;83.50;99201.31;1825335;78;25577;-69
2021/12/05 04:53:04;;;;;;;;;;;;;;;-3.63;83.57;99203.96;1825353;78;27314;-70
2021/12/05 04:55:31;;;;;;;;;;;;;;;-3.62;83.70;99196.33;1825280;78;25425;-69
2021/12/05 04:57:58;;;;;;;;;;;;;;;-3.62;83.65;99194.21;1825477;78;25578;-70
2021/12/05 05:00:34;;;;;;;;;;;;;;;-3.61;83.66;99199.26;1831989;78;25632;-70
2021/12/05 05:03:00;;;;;;;;;;;;;;;-3.61;83.45;99203.22;1835828;78;25432;-69
2021/12/05 05:05:28;;;;;;;;;;;;;;;-3.61;83.61;99202.41;1832046;78;27330;-69
2021/12/05 05:07:55;;;;;;;;;;;;;;;-3.61;83.56;99195.29;1831937;78;25547;-69
2021/12/05 05:10:24;;;;;;;;;;;;;;;-3.63;83.47;99198.67;1832031;78;25559;-69
2021/12/05 05:12:51;;;;;;;;;;;;;;;-3.62;83.45;99196.85;1831983;78;25621;-70
2021/12/05 05:15:22;;;;;;;;;;;;;;;-3.65;83.41;99200.77;1832125;78;25544;-69
2021/12/05 05:17:51;;;;;;;;;;;;;;;-3.65;83.40;99204.73;1832008;78;28509;-69
2021/12/05 05:20:28;;;;;;;;;;;;;;;-3.65;83.39;99202.62;1831874;78;25538;-69
2021/12/05 05:23:16;;;;;;;;;;;;;;;-3.66;83.34;99215.05;1829826;77;25578;-69
2021/12/05 05:46:53;;;;;;;;;;;;;;;-3.68;83.84;99203.09;1831883;78;25510;-70
2021/12/05 05:49:13;;;;;;;;;;;;;;;-3.69;83.84;99199.66;1829607;78;25539;-70
2021/12/05 05:51:38;;;;;;;;;;;;;;;-3.67;83.94;99194.14;1831641;77;26302;-70
2021/12/05 05:54:05;;;;;;;;;;;;;;;-3.67;84.10;99188.84;1832031;78;25537;-70
2021/12/05 05:56:33;;;;;;;;;;;;;;;-3.68;84.14;99184.59;1831938;78;27321;-70
2021/12/05 05:59:16;;;;;;;;;;;;;;;-3.68;84.29;99185.39;1829633;78;25397;-71
2021/12/05 06:04:06;;;;;;;;;;;;;;;-3.62;84.42;99195.00;1825246;78;25715;-70
2021/12/05 06:06:33;;;;;;;;;;;;;;;-3.59;84.47;99199.02;1825321;78;25575;-70
2021/12/05 06:09:00;;;;;;;;;;;;;;;-3.58;84.51;99193.46;1825292;78;27338;-70
2021/12/05 06:11:27;;;;;;;;;;;;;;;-3.54;84.55;99191.66;1825198;78;25357;-70
2021/12/05 06:13:53;;;;;;;;;;;;;;;-3.52;84.58;99194.86;1825270;78;25619;-70
2021/12/05 06:16:20;;;;;;;;;;;;;;;-3.50;84.64;99199.41;1825265;78;25692;-70
2021/12/05 06:18:47;;;;;;;;;;;;;;;-3.48;84.69;99206.56;1825330;78;25522;-70
2021/12/05 06:21:15;;;;;;;;;;;;;;;-3.44;84.74;99211.13;1825240;78;27416;-70
2021/12/05 06:23:41;;;;;;;;;;;;;;;-3.42;84.70;99203.75;1825167;78;25433;-70
2021/12/05 06:26:11;;;;;;;;;;;;;;;-3.40;84.67;99201.66;1825276;78;25452;-70
2021/12/05 06:28:41;;;;;;;;;;;;;;;-3.38;84.69;99204.85;1825263;78;25717;-69
2021/12/05 06:39:22;;;;;;;;;;;;;;;-3.29;84.70;99206.55;1825288;78;25417;-69
2021/12/05 06:41:49;;;;;;;;;;;;;;;-3.26;84.62;99213.22;1821761;78;25705;-69
2021/12/05 06:46:48;;;;;;;;;;;;;;;-3.23;84.61;99210.88;1825262;78;27245;-69
2021/12/05 06:49:15;;;;;;;;;;;;;;;-3.20;84.57;99214.89;1825183;78;25564;-69
2021/12/05 06:51:41;;;;;;;;;;;;;;;-3.17;84.53;99207.77;1825260;78;25372;-69
2021/12/05 06:54:08;;;;;;;;;;;;;;;-3.16;84.49;99215.99;1825299;78;25708;-68
2021/12/05 06:56:35;;;;;;;;;;;;;;;-3.14;84.58;99207.28;1825281;78;25358;-68
2021/12/05 06:59:02;;;;;;;;;;;;;;;-3.11;84.60;99215.27;1827022;78;27521;-70
2021/12/05 07:01:28;;;;;;;;;;;;;;;-3.08;84.62;99224.83;1834450;78;25534;-69
2021/12/05 07:03:56;;;;;;;;;;;;;;;-3.05;84.53;99227.00;1834574;78;25371;-69
2021/12/05 07:06:26;;;;;;;;;;;;;;;-3.06;84.53;99220.62;1834549;78;25605;-70
2021/12/05 07:08:53;;;;;;;;;;;;;;;-3.00;84.59;99223.59;1834086;78;25427;-69
2021/12/05 07:16:59;;;;;;;;;;;;;;;-2.88;84.62;99229.59;1834597;78;25432;-69
2021/12/05 07:42:58;;;;;;;;;;;;;;;-1.96;85.98;99248.80;1739752;82;25645;-70
2021/12/05 07:45:34;;;;;;;;;;;;;;;-1.82;85.95;99256.63;1717292;82;25805;-70
2021/12/05 07:48:02;;;;;;;;;;;;;;;-1.70;85.68;99255.92;1709227;82;25900;-70
2021/12/05 07:50:40;;;;;;;;;;;;;;;-1.54;86.13;99260.81;1709348;82;27390;-70
2021/12/05 07:53:02;;;;;;;;;;;;;;;-1.40;86.14;99261.17;1712356;82;25740;-70
2021/12/05 07:55:31;;;;;;;;;;;;;;;-1.26;86.02;99262.88;1687488;84;25678;-70
2021/12/05 08:00:44;;;;;;;;;;;;;;;-1.00;85.27;99261.16;1795878;79;25610;-69
2021/12/05 08:16:53;;;;;;;;;;;;;;;0.48;85.41;99266.56;1700090;84;27471;-69
2021/12/05 08:19:21;;;;;;;;;;;;;;;0.68;84.51;99263.60;1700080;84;25591;-69
2021/12/05 08:21:55;;;;;;;;;;;;;;;0.77;83.13;99259.34;1700152;84;25667;-69
2021/12/05 08:24:16;;;;;;;;;;;;;;;0.85;82.77;99251.33;1700161;83;25612;-69
2021/12/05 08:26:44;;;;;;;;;;;;;;;0.90;81.73;99255.31;1700203;84;25520;-69
2021/12/05 08:29:16;;;;;;;;;;;;;;;0.91;81.19;99263.03;1700405;84;27347;-70
2021/12/05 08:34:41;;;;;;;;;;;;;;;0.92;80.48;99279.83;1700417;84;25571;-68
2021/12/05 08:45:46;;;;;;;;;;;;;;;0.77;78.67;99281.97;1654614;86;25800;-70
2021/12/05 09:27:30;;;;;;;;;;;;;;;1.39;78.03;99271.15;1859662;77;25596;-69
2021/12/05 09:53:20;;;;;;;;;;;;;;;1.57;76.13;99273.75;1790327;80;27382;-69
2021/12/05 10:07:47;;;;;;;57.70;29.75;;;;;;;2.30;76.32;99268.20;1852734;77;25676;-70
2021/12/05 10:10:27;;;;;;;55.92;28.32;;;;;;;2.53;76.30;99262.14;1838218;77;27474;-70
2021/12/05 10:27:08;;;;;;;49.35;26.68;;;;;;;2.76;72.16;99259.28;1733080;81;25854;-70
2021/12/05 10:37:55;;;;;;;48.08;25.55;;;;;;;2.23;71.74;99267.19;1713260;83;27502;-70
2021/12/05 10:40:30;;;;;;;45.48;26.93;;;;;;;2.16;71.77;99268.05;1699357;83;25918;-72
2021/12/05 10:42:54;;;;;;;47.38;26.17;;;;;;;2.03;71.32;99262.81;1687987;84;25729;-72
2021/12/05 10:45:41;;;;;;;51.20;26.55;;;;;;;1.91;71.12;99263.16;1688977;84;25716;-73
2021/12/05 10:48:13;;;;;;;53.13;28.62;;;;;;;1.78;71.30;99259.22;1688996;84;25519;-71
2021/12/05 10:50:47;;;;;;;70.80;34.15;;;;;;;1.71;71.42;99266.73;1689728;83;27504;-72
2021/12/05 10:53:25;;;;;;;63.95;29.98;;;;;;;1.66;71.54;99266.76;1718090;82;25839;-74
2021/12/05 10:56:00;;;;;;;59.67;30.25;;;;;;;1.59;71.67;99264.39;1740392;81;25808;-72
2021/12/05 10:58:41;;;;;;;110.15;45.30;;;;;;;1.56;71.71;99267.59;1758842;81;25762;-72
2021/12/05 11:01:27;;;;;;;114.37;55.05;;;;;;;1.51;71.78;99263.63;1785500;80;25616;-72
2021/12/05 11:04:02;;;;;;;77.67;42.05;;;;;;;1.47;72.09;99256.72;1709593;82;27676;-72
2021/12/05 11:06:52;;;;;;;52.50;28.98;;;;;;;1.49;72.24;99256.45;1726405;82;25910;-72
2021/12/05 11:09:29;;;;;;;42.15;24.63;;;;;;;1.44;71.83;99258.59;1700740;83;25682;-72
2021/12/05 11:12:05;;;;;;;48.60;26.07;;;;;;;1.40;71.72;99246.11;1743726;82;26451;-72
2021/12/05 11:14:37;;;;;;;47.03;26.93;;;;;;;1.37;72.04;99253.31;1693827;84;25778;-71
2021/12/05 11:17:11;;;;;;;50.12;27.02;;;;;;;1.37;72.10;99259.97;1746644;82;27440;-72
2021/12/05 11:19:51;;;;;;;55.23;29.55;;;;;;;1.32;71.99;99256.78;1691964;83;25742;-74
2021/12/05 11:22:35;;;;;;;54.27;29.77;;;;;;;1.31;72.07;99260.50;1749477;81;25637;-71
2021/12/05 11:25:09;;;;;;;61.88;31.52;;;;;;;1.28;71.99;99257.08;1676391;84;25663;-72
2021/12/05 11:27:42;;;;;;;53.55;28.52;;;;;;;1.27;72.14;99259.47;1681244;85;25801;-71
2021/12/05 11:30:34;;;;;;;61.23;31.60;;;;;;;1.28;72.30;99261.86;1663341;85;27541;-73
2021/12/05 11:33:18;;;;;;;54.23;28.87;;;;;;;1.30;72.41;99257.59;1687272;85;25807;-72
2021/12/05 11:36:00;;;;;;;50.78;28.38;;;;;;;1.27;72.18;99258.13;1668258;85;25806;-72
2021/12/05 11:38:32;;;;;;;48.60;25.75;;;;;;;1.25;72.48;99257.62;1680520;85;25802;-72
2021/12/05 11:41:13;;;;;;;58.63;29.65;;;;;;;1.24;72.34;99265.34;1686164;83;25696;-73
2021/12/05 11:43:52;;;;;;;54.53;27.95;;;;;;;1.23;72.33;99259.77;1722239;83;27462;-72
2021/12/05 11:46:31;;;;;;;48.95;25.23;;;;;;;1.18;72.11;99263.23;1660096;86;32915;-71
2021/12/05 11:49:06;;;;;;;52.20;27.00;;;;;;;1.14;71.93;99264.83;1709793;83;25814;-71
2021/12/05 11:51:53;;;;;;;48.70;26.42;;;;;;;1.11;72.22;99265.39;1696150;83;25703;-71
2021/12/05 11:54:37;;;;;;;48.13;25.15;;;;;;;1.09;72.40;99258.19;1698222;83;25664;-72
2021/12/05 11:57:12;;;;;;;42.85;23.90;;;;;;;1.11;72.45;99266.72;1718451;83;28122;-72
2021/12/05 12:00:00;;;;;;;41.75;22.77;;;;;;;1.08;72.46;99256.61;1699376;83;25681;-72
2021/12/05 12:02:37;;;;;;;42.75;23.45;;;;;;;1.06;72.26;99259.54;1757086;80;25621;-71
2021/12/05 12:05:17;;;;;;;44.65;23.75;;;;;;;1.04;72.52;99263.52;1787876;80;25747;-72
2021/12/05 12:07:49;;;;;;;46.58;24.20;;;;;;;1.03;72.56;99269.94;1818292;78;25685;-71
2021/12/05 12:10:37;;;;;;;43.30;24.37;;;;;;;1.02;72.61;99267.00;1790852;78;27487;-72
2021/12/05 12:13:14;;;;;;;39.38;21.57;;;;;;;1.01;72.70;99267.54;1798649;79;25405;-72
2021/12/05 12:15:45;;;;;;;44.03;22.15;;;;;;;0.98;72.65;99256.64;1817903;78;25552;-72
2021/12/05 12:18:26;;;;;;;41.20;21.85;;;;;;;0.97;72.71;99252.37;1791648;80;25744;-71
2021/12/05 12:20:49;;;;;;;38.55;20.85;;;;;;;0.93;72.71;99250.23;1805649;78;25878;-71
2021/12/05 12:23:18;;;;;;;42.88;22.55;;;;;;;0.92;72.66;99247.33;1818908;78;27591;-72
2021/12/05 12:25:52;;;;;;;37.28;21.65;;;;;;;0.91;72.76;99254.25;1807567;79;25798;-72
2021/12/05 12:28:19;;;;;;;41.33;22.48;;;;;;;0.88;72.91;99244.14;1801360;78;25625;-71
2021/12/05 12:30:57;;;;;;;43.90;23.00;;;;;;;0.89;72.95;99244.41;1810400;78;25664;-71
2021/12/05 12:33:34;;;;;;;43.05;21.73;;;;;;;0.87;72.99;99242.53;1791337;78;25598;-72
2021/12/05 12:36:03;;;;;;;41.00;22.80;;;;;;;0.86;73.05;99227.10;1814798;78;28099;-71
2021/12/05 12:38:35;;;;;;;40.50;21.95;;;;;;;0.87;73.17;99239.87;1793899;78;34840;-74
2021/12/05 12:41:16;;;;;;;45.23;23.02;;;;;;;0.86;73.13;99236.42;1823242;78;25595;-75
2021/12/05 12:44:01;;;;;;;39.40;22.52;;;;;;;0.85;73.19;99242.83;1818629;78;25702;-73
2021/12/05 12:46:41;;;;;;;45.20;24.02;;;;;;;0.88;73.30;99232.95;1802986;78;25608;-73
2021/12/05 12:49:22;;;;;;;42.65;23.80;;;;;;;0.89;73.44;99230.56;1767635;80;28261;-74
2021/12/05 12:52:03;;;;;;;46.25;24.18;;;;;;;0.88;73.44;99234.82;1793643;78;25550;-74
2021/12/05 12:54:48;;;;;;;53.15;26.77;;;;;;;0.90;73.48;99246.81;1809150;78;25672;-74
2021/12/05 12:57:31;;;;;;;49.03;26.52;;;;;;;0.88;73.67;99246.80;1767145;79;27012;-74
2021/12/05 13:00:07;;;;;;;52.15;26.50;;;;;;;0.86;73.95;99254.27;1790429;79;25651;-73
2021/12/05 13:02:57;;;;;;;50.75;28.25;;;;;;;0.84;74.13;99258.53;1804486;78;27481;-74
2021/12/05 13:11:15;;;;;;;54.15;29.77;;;;;;;0.73;74.57;99269.73;1811652;78;25557;-74
2021/12/05 13:13:46;;;;;;;57.75;30.97;;;;;;;0.73;74.94;99279.56;1799542;78;25719;-74
2021/12/05 13:16:20;;;;;;;56.92;30.05;;;;;;;0.68;75.18;99271.08;1790214;80;27443;-74
2021/12/05 13:18:58;;;;;;;53.02;28.67;;;;;;;0.66;75.51;99275.05;1774139;78;25673;-74
2021/12/05 13:21:36;;;;;;;55.95;29.23;;;;;;;0.64;75.49;99273.98;1798529;78;25724;-74
2021/12/05 13:24:29;;;;;;;52.03;29.95;;;;;;;0.60;75.75;99279.59;1786607;78;25705;-74
2021/12/05 13:27:03;;;;;;;54.63;30.95;;;;;;;0.57;75.92;99285.45;1801285;78;25599;-74
2021/12/05 13:29:35;;;;;;;56.75;30.43;;;;;;;0.53;76.14;99294.50;1775893;79;27995;-74
2021/12/05 13:32:12;;;;;;;58.20;31.55;;;;;;;0.51;76.23;99295.81;1815198;78;25634;-74
2021/12/05 13:34:51;;;;;;;58.52;31.17;;;;;;;0.48;76.39;99301.69;1811972;78;25628;-74
2021/12/05 13:37:38;;;;;;;58.20;31.45;;;;;;;0.46;76.59;99307.79;1790912;78;32283;-74
2021/12/05 13:40:22;;;;;;;59.98;31.25;;;;;;;0.43;76.70;99305.69;1784473;78;25762;-74
2021/12/05 13:42:57;;;;;;;59.48;31.55;;;;;;;0.40;76.82;99302.22;1784052;80;28145;-73
2021/12/05 13:45:32;;;;;;;55.48;31.00;;;;;;;0.38;76.95;99308.34;1791123;78;25393;-73
2021/12/05 13:48:07;;;;;;;57.75;31.50;;;;;;;0.38;77.08;99326.42;1811532;78;25737;-74
2021/12/05 13:50:51;;;;;;;62.15;32.80;;;;;;;0.36;77.38;99330.67;1806976;78;25406;-73
2021/12/05 13:53:23;;;;;;;59.38;31.57;;;;;;;0.35;77.31;99334.39;1795932;78;25774;-70
2021/12/05 13:55:58;;;;;;;62.03;32.85;;;;;;;0.34;77.61;99332.81;1823283;78;27831;-70
2021/12/05 13:58:45;;;;;;;86.78;44.25;;;;;;;0.33;77.63;99330.41;1822921;78;25395;-73
2021/12/05 14:01:29;;;;;;;83.82;40.25;;;;;;;0.32;77.90;99332.28;1823478;78;25598;-71
2021/12/05 14:04:19;;;;;;;72.50;35.90;;;;;;;0.30;78.36;99336.25;1821077;78;25614;-70
2021/12/05 14:07:04;;;;;;;64.67;34.65;;;;;;;0.27;78.60;99334.11;1793851;79;25587;-71
2021/12/05 14:09:35;;;;;;;73.67;38.38;;;;;;;0.22;78.51;99332.23;1790684;80;27527;-70
2021/12/05 14:13:12;;;;;;;69.55;37.48;;;;;;;0.29;78.78;99341.30;1868123;76;35055;-72
2021/12/05 14:15:40;;;;;;;62.90;34.65;;;;;;;0.22;79.08;99342.88;1803760;78;25752;-70
2021/12/05 14:18:06;;;;;;;59.65;33.00;;;;;;;0.19;79.22;99343.42;1818106;78;27470;-70
2021/12/05 14:20:33;;;;;;;60.08;33.15;;;;;;;0.20;79.34;99347.67;1791934;80;25672;-70
2021/12/05 14:23:04;;;;;;;56.73;32.50;;;;;;;0.18;79.52;99338.62;1788509;79;25612;-71
2021/12/05 14:25:30;;;;;;;56.08;32.67;;;;;;;0.18;79.73;99338.62;1791948;79;25521;-70
2021/12/05 14:28:01;;;;;;;58.40;32.33;;;;;;;0.15;79.90;99336.51;1792057;80;25618;-70
2021/12/05 14:30:32;;;;;;;52.62;30.00;;;;;;;0.15;80.08;99335.69;1791931;80;27558;-71
2021/12/05 14:32:59;;;;;;;49.25;29.35;;;;;;;0.10;80.07;99331.69;1795929;77;25436;-71
2021/12/05 14:35:32;;;;;;;51.45;29.77;;;;;;;0.08;80.34;99337.27;1823803;78;25608;-70
2021/12/05 14:38:01;;;;;;;49.48;29.48;;;;;;;0.09;80.36;99340.75;1823145;78;25437;-71
2021/12/05 14:40:31;;;;;;;55.73;30.20;;;;;;;0.07;80.53;99341.52;1824640;78;32763;-71
2021/12/05 14:43:06;;;;;;;60.52;32.17;;;;;;;0.03;80.71;99343.11;1824508;78;27154;-71
2021/12/05 14:45:37;;;;;;;53.80;29.65;;;;;;;0.01;80.84;99338.59;1823542;78;25754;-71
2021/12/05 14:48:09;;;;;;;50.67;29.00;;;;;;;-0.03;81.13;99340.45;1824501;78;25449;-71
2021/12/05 14:50:39;;;;;;;48.95;27.82;;;;;;;-0.07;81.20;99340.71;1824141;78;25826;-70
2021/12/05 14:53:10;;;;;;;48.87;27.45;;;;;;;-0.11;81.36;99347.59;1824491;78;25485;-70
2021/12/05 14:55:37;;;;;;;51.53;29.48;;;;;;;-0.13;81.59;99344.94;1824492;78;28131;-71
2021/12/05 14:58:08;;;;;;;52.08;31.82;;;;;;;-0.12;81.70;99343.36;1824357;78;25372;-71
2021/12/05 15:00:43;;;;;;;53.75;30.48;;;;;;;-0.12;82.00;99350.51;1803856;78;25592;-71
2021/12/05 15:03:15;;;;;;;52.95;30.80;;;;;;;-0.14;82.00;99340.13;1824447;78;25708;-71
2021/12/05 15:05:47;;;;;;;51.48;29.50;;;;;;;-0.14;82.20;99339.34;1824545;78;25453;-70
2021/12/05 15:08:18;;;;;;;98.72;49.65;;;;;;;-0.17;82.39;99343.34;1822691;78;28048;-70
2021/12/05 15:10:49;;;;;;;63.15;35.40;;;;;;;-0.15;82.40;99359.00;1824420;78;25489;-70
2021/12/05 15:13:18;;;;;;;57.83;33.33;;;;;;;-0.15;82.69;99366.47;1829776;78;25579;-70
2021/12/05 15:15:46;;;;;;;53.00;30.43;;;;;;;-0.17;82.79;99358.47;1830733;78;25525;-70
2021/12/05 15:18:28;;;;;;;51.13;29.72;;;;;;;-0.20;82.82;99359.80;1830378;78;25378;-70
2021/12/05 15:20:52;;;;;;;51.98;29.00;;;;;;;-0.22;83.02;99364.05;1829993;77;27483;-71
2021/12/05 15:23:19;;;;;;;50.12;29.87;;;;;;;-0.21;83.19;99364.84;1830167;78;25853;-70
2021/12/05 15:25:46;;;;;;;70.67;35.80;;;;;;;-0.22;83.17;99367.24;1829983;77;25600;-70
2021/12/05 15:28:15;;;;;;;65.80;36.00;;;;;;;-0.25;83.19;99362.44;1829928;78;25700;-71
2021/12/05 15:30:45;;;;;;;;;;;;;;;-0.20;83.40;99367.77;1788632;78;25397;-70
2021/12/05 15:33:22;;;;;;;55.10;29.48;;;;;;;-0.18;83.48;99372.30;1830031;78;27455;-71
2021/12/05 15:35:51;;;;;;;56.08;29.10;;;;;;;-0.21;83.58;99364.84;1829910;78;25599;-70
2021/12/05 15:38:24;;;;;;;59.53;31.02;;;;;;;-0.21;83.64;99364.84;1830117;78;25527;-72
2021/12/05 15:41:09;;;;;;;53.33;30.90;;;;;;;-0.23;83.70;99359.77;1829974;78;25627;-70
2021/12/05 15:43:40;;;;;;;51.85;29.72;;;;;;;-0.22;83.78;99359.27;1830024;77;25431;-70
2021/12/05 15:46:11;;;;;;;51.80;30.30;;;;;;;-0.21;83.89;99362.17;1829971;77;27436;-70
2021/12/05 15:48:37;;;;;;;51.10;30.97;;;;;;;-0.22;84.01;99362.72;1823517;77;25579;-70
2021/12/05 15:51:10;;;;;;;53.65;29.23;;;;;;;-0.23;84.18;99371.73;1808398;77;25698;-70
2021/12/05 15:53:39;;;;;;;51.08;29.52;;;;;;;-0.25;84.40;99365.09;1797389;79;25669;-72
2021/12/05 15:56:09;;;;;;;;;;;;;;;-0.30;84.40;99361.88;1800048;79;25396;-71
2021/12/05 15:58:46;;;;;;;52.33;29.32;;;;;;;-0.28;84.69;99365.61;1797427;79;27665;-71
2021/12/05 16:01:20;;;;;;;51.23;29.50;;;;;;;-0.28;84.69;99361.63;1797058;79;25828;-70
2021/12/05 16:03:51;;;;;;;55.12;31.87;;;;;;;-0.28;84.77;99373.58;1796952;79;25621;-71
2021/12/05 16:06:22;;;;;;;70.20;37.00;;;;;;;-0.28;84.85;99380.23;1797351;79;25799;-70
2021/12/05 16:08:50;;;;;;;86.60;39.60;;;;;;;-0.26;84.78;99377.56;1781876;79;25617;-70
2021/12/05 16:11:23;;;;;;;83.07;38.58;;;;;;;-0.24;84.86;99378.64;1781857;79;26056;-70
2021/12/05 16:13:53;;;;;;;95.57;44.00;;;;;;;-0.23;84.94;99376.27;1765698;80;25475;-71
2021/12/05 16:16:27;;;;;;;87.55;43.63;;;;;;;-0.22;84.99;99380.53;1796008;77;25359;-71
2021/12/05 16:18:59;;;;;;;76.95;42.40;;;;;;;-0.23;84.99;99377.05;1802034;78;25593;-71
2021/12/05 16:21:32;;;;;;;71.07;40.78;;;;;;;-0.23;85.21;99380.25;1826571;78;25524;-70
2021/12/05 16:24:13;;;;;;;66.33;36.33;;;;;;;-0.21;85.20;99392.20;1827005;78;27175;-70
2021/12/05 16:26:42;;;;;;;73.07;37.40;;;;;;;-0.19;85.29;99390.63;1826922;78;25539;-70
2021/12/05 16:29:24;;;;;;;67.22;35.30;;;;;;;-0.16;85.40;99391.98;1827219;78;25451;-69
2021/12/05 16:31:58;;;;;;;58.13;30.97;;;;;;;-0.20;85.45;99380.52;1826940;78;25514;-69
2021/12/05 16:34:29;;;;;;;64.03;34.15;;;;;;;-0.17;85.54;99386.38;1826814;78;25605;-70
2021/12/05 16:37:03;;;;;;;75.10;39.50;;;;;;;-0.17;85.55;99392.52;1827029;78;27440;-70
2021/12/05 16:39:40;;;;;;;57.80;32.58;;;;;;;-0.16;85.61;99390.64;1825983;78;25518;-69
2021/12/05 16:42:15;;;;;;;54.38;30.62;;;;;;;-0.17;85.77;99382.39;1826989;78;25534;-70
2021/12/05 16:44:42;;;;;;;56.15;31.70;;;;;;;-0.21;85.69;99382.91;1827020;78;25563;-70
2021/12/05 16:47:16;;;;;;;53.10;31.35;;;;;;;-0.20;85.88;99383.72;1796987;78;25388;-70
2021/12/05 16:49:49;;;;;;;68.60;36.58;;;;;;;-0.22;85.91;99383.98;1826946;78;27555;-69
2021/12/05 16:52:29;;;;;;;57.00;34.78;;;;;;;-0.24;85.95;99375.47;1826875;78;25547;-69
2021/12/05 16:55:09;;;;;;;59.53;34.90;;;;;;;-0.22;86.01;99393.28;1827055;78;34638;-70
2021/12/05 16:57:43;;;;;;;54.48;32.23;;;;;;;-0.21;86.02;99382.11;1825936;78;25401;-70
2021/12/05 17:00:16;;;;;;;57.62;35.00;;;;;;;-0.20;86.26;99389.04;1821923;77;25540;-70
2021/12/05 17:02:53;;;;;;;56.77;32.23;;;;;;;-0.20;86.30;99383.19;1797865;78;27488;-70
2021/12/05 17:05:40;;;;;;;57.23;33.33;;;;;;;-0.18;86.33;99391.44;1793890;80;26046;-71
2021/12/05 17:08:23;;;;;;;61.20;35.75;;;;;;;-0.19;86.40;99393.28;1794002;80;25701;-71
2021/12/05 17:11:06;;;;;;;58.35;33.78;;;;;;;-0.15;86.61;99401.53;1793936;80;25627;-71
2021/12/05 17:13:47;;;;;;;60.88;34.73;;;;;;;-0.15;86.29;99410.84;1784519;80;25826;-71
2021/12/05 17:16:23;;;;;;;54.90;32.08;;;;;;;-0.16;86.33;99414.03;1793194;79;29267;-70
2021/12/05 17:19:10;;;;;;;60.25;32.42;;;;;;;-0.16;86.46;99413.23;1794066;79;25697;-71